createdAt,value
2019-04-03T00:00:43.229Z,15.40
2019-04-03T00:03:12.679Z,15.40
2019-04-03T00:05:42.071Z,15.40
2019-04-03T00:08:11.443Z,15.40
2019-04-03T00:10:40.890Z,15.30
2019-04-03T00:13:11.157Z,15.30
2019-04-03T00:15:40.843Z,15.30
2019-04-03T00:18:11.324Z,15.20
2019-04-03T00:20:40.718Z,15.20
2019-04-03T00:23:10.167Z,15.20
2019-04-03T00:25:39.563Z,15.20
2019-04-03T00:28:09.018Z,15.30
2019-04-03T00:30:38.422Z,15.30
2019-04-03T00:33:34.707Z,15.20
2019-04-03T00:36:04.262Z,15.20
2019-04-03T00:38:54.313Z,15.20
2019-04-03T00:41:24.828Z,15.10
2019-04-03T00:43:55.063Z,15.10
2019-04-03T00:46:25.720Z,15.10
2019-04-03T00:48:55.731Z,15.10
2019-04-03T00:51:27.518Z,15.10
2019-04-03T00:53:58.446Z,15.10
2019-04-03T00:56:27.905Z,15.10
2019-04-03T00:58:57.427Z,15.00
2019-04-03T01:01:27.010Z,15.00
2019-04-03T01:03:56.844Z,14.90
2019-04-03T01:06:28.677Z,15.00
2019-04-03T01:08:59.394Z,14.90
2019-04-03T01:11:30.604Z,15.00
2019-04-03T01:14:02.331Z,14.90
2019-04-03T01:16:33.557Z,14.90
2019-04-03T01:19:05.077Z,14.90
2019-04-03T01:21:36.537Z,14.80
2019-04-03T01:24:07.474Z,14.80
2019-04-03T01:26:36.937Z,14.80
2019-04-03T01:29:06.627Z,14.80
2019-04-03T01:31:36.061Z,14.90
2019-04-03T01:34:05.726Z,14.90
2019-04-03T01:36:35.194Z,14.90
2019-04-03T01:39:06.611Z,14.90
2019-04-03T01:41:37.716Z,14.90
2019-04-03T01:44:07.106Z,15.00
2019-04-03T01:46:36.560Z,14.90
2019-04-03T01:49:06.105Z,14.90
2019-04-03T01:51:35.508Z,14.90
2019-04-03T01:54:04.953Z,14.90
2019-04-03T01:56:35.870Z,14.90
2019-04-03T01:59:06.607Z,14.90
2019-04-03T02:01:38.133Z,14.90
2019-04-03T02:04:07.596Z,14.90
2019-04-03T02:06:36.982Z,14.90
2019-04-03T02:09:09.582Z,14.90
2019-04-03T02:11:39.405Z,14.90
2019-04-03T02:14:09.435Z,14.80
2019-04-03T02:16:38.827Z,14.80
2019-04-03T02:19:08.225Z,14.80
2019-04-03T02:21:37.697Z,14.80
2019-04-03T02:24:07.178Z,14.80
2019-04-03T02:26:36.585Z,14.80
2019-04-03T02:29:08.408Z,14.80
2019-04-03T02:31:37.049Z,14.80
2019-04-03T02:34:06.661Z,14.80
2019-04-03T02:36:36.162Z,14.90
2019-04-03T02:39:06.384Z,14.80
2019-04-03T02:41:37.379Z,14.70
2019-04-03T02:44:07.800Z,14.80
2019-04-03T02:46:37.199Z,14.70
2019-04-03T02:49:09.071Z,14.70
2019-04-03T02:51:38.229Z,14.70
2019-04-03T02:54:25.818Z,14.70
2019-04-03T02:56:56.654Z,14.70
2019-04-03T02:59:26.987Z,14.80
2019-04-03T03:01:56.493Z,14.70
2019-04-03T03:04:27.023Z,14.70
2019-04-03T03:06:56.421Z,14.70
2019-04-03T03:09:26.452Z,14.70
2019-04-03T03:11:57.059Z,14.70
2019-04-03T03:14:27.753Z,14.70
2019-04-03T03:16:59.242Z,14.70
2019-04-03T03:19:31.939Z,14.70
2019-04-03T03:22:01.412Z,14.70
2019-04-03T03:24:32.810Z,14.70
2019-04-03T03:27:02.510Z,14.60
2019-04-03T03:29:33.376Z,14.60
2019-04-03T03:32:13.192Z,14.60
2019-04-03T03:34:51.969Z,14.50
2019-04-03T03:37:05.923Z,14.60
2019-04-03T03:39:37.404Z,14.60
2019-04-03T03:42:07.523Z,14.60
2019-04-03T03:44:38.156Z,14.60
2019-04-03T03:47:08.564Z,14.60
2019-04-03T03:49:41.110Z,14.50
2019-04-03T03:52:11.365Z,14.50
2019-04-03T03:54:41.163Z,14.50
2019-04-03T03:57:11.042Z,14.50
2019-04-03T03:59:40.906Z,14.50
2019-04-03T04:02:10.565Z,14.50
2019-04-03T04:04:40.442Z,14.50
2019-04-03T04:07:10.086Z,14.50
2019-04-03T04:09:39.968Z,14.50
2019-04-03T04:12:09.728Z,14.50
2019-04-03T04:14:40.673Z,14.50
2019-04-03T04:17:15.836Z,14.50
2019-04-03T04:19:41.455Z,14.50
2019-04-03T04:22:10.859Z,14.50
2019-04-03T04:24:40.382Z,14.40
2019-04-03T04:27:10.127Z,14.40
2019-04-03T04:29:41.638Z,14.40
2019-04-03T04:32:14.522Z,14.40
2019-04-03T04:34:42.960Z,14.40
2019-04-03T04:37:12.533Z,14.40
2019-04-03T04:39:42.803Z,14.40
2019-04-03T04:42:12.258Z,14.30
2019-04-03T04:44:41.674Z,14.30
2019-04-03T04:47:14.408Z,14.20
2019-04-03T04:49:43.212Z,14.20
2019-04-03T04:52:12.657Z,14.20
2019-04-03T04:54:43.050Z,14.10
2019-04-03T04:57:32.133Z,14.10
2019-04-03T05:00:01.929Z,14.30
2019-04-03T05:02:31.454Z,14.60
2019-04-03T05:05:00.842Z,14.70
2019-04-03T05:07:30.792Z,14.50
2019-04-03T05:10:17.413Z,14.30
2019-04-03T05:12:46.037Z,14.20
2019-04-03T05:15:15.507Z,14.20
2019-04-03T05:17:44.907Z,14.20
2019-04-03T05:20:15.205Z,14.30
2019-04-03T05:22:44.702Z,14.30
2019-04-03T05:25:15.326Z,14.30
2019-04-03T05:27:44.868Z,14.40
2019-04-03T05:30:21.005Z,14.40
2019-04-03T05:32:50.902Z,14.40
2019-04-03T05:35:20.364Z,14.50
2019-04-03T05:37:50.915Z,14.50
2019-04-03T05:40:21.179Z,14.40
2019-04-03T05:42:50.854Z,14.40
2019-04-03T05:45:20.253Z,14.40
2019-04-03T05:47:49.946Z,14.40
2019-04-03T05:50:19.501Z,14.40
2019-04-03T05:52:49.246Z,14.30
2019-04-03T05:55:18.828Z,14.40
2019-04-03T05:57:48.387Z,14.50
2019-04-03T06:00:18.353Z,14.50
2019-04-03T06:02:47.879Z,14.50
2019-04-03T06:05:19.267Z,14.60
2019-04-03T06:07:49.661Z,14.60
2019-04-03T06:10:19.292Z,14.50
2019-04-03T06:12:48.756Z,14.50
2019-04-03T06:15:21.799Z,14.50
2019-04-03T06:17:50.776Z,14.50
2019-04-03T06:20:20.662Z,14.50
2019-04-03T06:22:50.641Z,14.50
2019-04-03T06:25:20.735Z,14.50
2019-04-03T06:27:50.143Z,14.50
2019-04-03T06:30:19.775Z,14.50
2019-04-03T06:32:49.158Z,14.60
2019-04-03T06:35:18.565Z,14.60
2019-04-03T06:37:48.119Z,14.60
2019-04-03T06:40:17.815Z,14.60
2019-04-03T06:42:47.239Z,14.50
2019-04-03T06:45:16.832Z,14.50
2019-04-03T06:47:46.389Z,14.50
2019-04-03T06:50:17.531Z,14.50
2019-04-03T06:52:46.932Z,14.50
2019-04-03T06:55:16.310Z,14.50
2019-04-03T06:57:45.863Z,14.50
2019-04-03T07:00:15.644Z,14.50
2019-04-03T07:02:45.203Z,14.50
2019-04-03T07:05:14.627Z,14.50
2019-04-03T07:07:44.099Z,14.40
2019-04-03T07:10:24.130Z,14.40
2019-04-03T07:12:44.631Z,14.40
2019-04-03T07:15:14.266Z,14.40
2019-04-03T07:17:43.713Z,14.30
2019-04-03T07:20:15.869Z,14.30
2019-04-03T07:22:44.491Z,14.40
2019-04-03T07:25:13.892Z,14.40
2019-04-03T07:27:43.295Z,14.40
2019-04-03T07:30:13.214Z,14.40
2019-04-03T07:32:42.618Z,14.40
2019-04-03T07:35:12.080Z,14.30
2019-04-03T07:37:41.686Z,14.30
2019-04-03T07:40:12.295Z,14.30
2019-04-03T07:42:41.819Z,14.40
2019-04-03T07:45:11.465Z,14.40
2019-04-03T07:47:40.916Z,14.40
2019-04-03T07:50:11.706Z,14.50
2019-04-03T07:52:42.484Z,14.50
2019-04-03T07:55:12.316Z,14.50
2019-04-03T07:57:42.086Z,14.50
2019-04-03T08:00:12.608Z,14.50
2019-04-03T08:02:47.233Z,14.60
2019-04-03T08:05:13.693Z,14.60
2019-04-03T08:07:43.084Z,14.60
2019-04-03T08:10:12.899Z,14.70
2019-04-03T08:12:42.271Z,14.70
2019-04-03T08:15:13.254Z,14.70
2019-04-03T08:17:43.417Z,14.80
2019-04-03T08:20:13.199Z,14.80
2019-04-03T08:22:42.580Z,14.80
2019-04-03T08:25:13.319Z,14.80
2019-04-03T08:27:42.830Z,14.90
2019-04-03T08:30:13.760Z,14.90
2019-04-03T08:32:43.204Z,14.90
2019-04-03T08:35:39.403Z,14.90
2019-04-03T08:38:08.862Z,14.90
2019-04-03T08:40:38.243Z,14.90
2019-04-03T08:43:07.611Z,15.00
2019-04-03T08:45:38.492Z,15.40
2019-04-03T08:48:08.173Z,15.30
2019-04-03T08:50:37.742Z,15.10
2019-04-03T08:53:08.362Z,15.00
2019-04-03T08:55:38.798Z,14.80
2019-04-03T08:58:08.398Z,14.70
2019-04-03T09:00:37.787Z,14.50
2019-04-03T09:03:07.415Z,14.30
2019-04-03T09:05:36.811Z,14.30
2019-04-03T09:08:06.258Z,14.30
2019-04-03T09:10:37.049Z,14.30
2019-04-03T09:13:16.499Z,14.30
2019-04-03T09:15:38.430Z,14.30
2019-04-03T09:18:07.988Z,14.40
2019-04-03T09:20:37.487Z,14.50
2019-04-03T09:23:06.906Z,14.50
2019-04-03T09:25:36.295Z,14.40
2019-04-03T09:28:05.747Z,14.40
2019-04-03T09:30:35.313Z,14.40
2019-04-03T09:33:04.698Z,14.40
2019-04-03T09:35:48.084Z,14.40
2019-04-03T09:38:17.478Z,14.50
2019-04-03T09:40:48.631Z,14.50
2019-04-03T09:43:20.102Z,14.60
2019-04-03T09:45:50.540Z,14.60
2019-04-03T09:48:19.928Z,14.50
2019-04-03T09:50:49.311Z,14.60
2019-04-03T09:53:18.699Z,14.70
2019-04-03T09:55:48.101Z,14.70
2019-04-03T09:58:17.495Z,14.70
2019-04-03T10:00:46.886Z,14.80
2019-04-03T10:03:16.292Z,14.80
2019-04-03T10:05:46.125Z,14.90
2019-04-03T10:08:15.785Z,14.90
2019-04-03T10:10:47.174Z,15.00
2019-04-03T10:13:17.448Z,15.10
2019-04-03T10:15:47.037Z,15.20
2019-04-03T10:18:17.562Z,15.40
2019-04-03T10:20:48.672Z,15.50
2019-04-03T10:23:19.278Z,15.60
2019-04-03T10:25:48.650Z,15.60
2019-04-03T10:28:18.087Z,15.70
2019-04-03T10:30:55.960Z,15.80
2019-04-03T10:33:26.494Z,15.80
2019-04-03T10:35:55.873Z,15.90
2019-04-03T10:38:25.553Z,16.00
2019-04-03T10:41:16.218Z,16.10
2019-04-03T10:43:45.674Z,16.10
2019-04-03T10:46:16.484Z,16.10
2019-04-03T10:48:46.220Z,16.10
2019-04-03T10:51:15.584Z,16.00
2019-04-03T10:53:45.254Z,16.00
2019-04-03T10:56:14.840Z,16.00
2019-04-03T10:58:44.345Z,15.90
2019-04-03T11:01:13.893Z,15.90
2019-04-03T11:03:43.309Z,15.90
2019-04-03T11:06:12.766Z,15.90
2019-04-03T11:08:42.325Z,16.00
2019-04-03T11:11:31.375Z,16.00
2019-04-03T11:14:02.375Z,16.10
2019-04-03T11:16:32.030Z,16.00
2019-04-03T11:19:05.549Z,16.00
2019-04-03T11:21:32.490Z,16.00
2019-04-03T11:24:01.875Z,15.90
2019-04-03T11:26:31.526Z,15.90
2019-04-03T11:29:00.975Z,15.90
2019-04-03T11:31:33.549Z,15.90
2019-04-03T11:34:01.575Z,15.90
2019-04-03T11:36:31.269Z,16.00
2019-04-03T11:39:11.258Z,16.00
2019-04-03T11:41:33.395Z,16.10
2019-04-03T11:44:02.889Z,16.30
2019-04-03T11:46:32.391Z,16.40
2019-04-03T11:49:01.759Z,16.40
2019-04-03T11:51:33.774Z,16.40
2019-04-03T11:54:02.417Z,16.40
2019-04-03T11:56:31.933Z,16.30
2019-04-03T11:59:02.395Z,16.30
2019-04-03T12:01:31.940Z,16.30
2019-04-03T12:04:01.622Z,16.30
2019-04-03T12:06:31.096Z,16.30
2019-04-03T12:09:01.241Z,16.20
2019-04-03T12:11:32.760Z,16.20
2019-04-03T12:14:02.630Z,16.20
2019-04-03T12:16:32.106Z,16.20
2019-04-03T12:19:04.419Z,16.20
2019-04-03T12:21:32.571Z,16.20
2019-04-03T12:24:02.043Z,16.10
2019-04-03T12:26:31.858Z,16.10
2019-04-03T12:29:01.510Z,16.20
2019-04-03T12:31:31.351Z,16.10
2019-04-03T12:34:04.494Z,16.20
2019-04-03T12:36:31.939Z,16.20
2019-04-03T12:39:01.339Z,16.20
2019-04-03T12:41:35.425Z,16.20
2019-04-03T12:44:03.535Z,16.30
2019-04-03T12:46:41.099Z,16.30
2019-04-03T12:49:09.874Z,16.30
2019-04-03T12:51:39.335Z,16.30
2019-04-03T12:54:12.449Z,16.30
2019-04-03T12:56:40.827Z,16.30
2019-04-03T12:59:10.626Z,16.50
2019-04-03T13:01:40.193Z,16.50
2019-04-03T13:04:09.646Z,16.50
2019-04-03T13:06:41.899Z,16.50
2019-04-03T13:09:11.395Z,16.50
2019-04-03T13:11:40.955Z,16.50
2019-04-03T13:14:22.062Z,16.50
2019-04-03T13:16:42.562Z,16.50
2019-04-03T13:19:14.889Z,16.50
2019-04-03T13:21:43.314Z,16.60
2019-04-03T13:24:12.764Z,16.50
2019-04-03T13:26:43.904Z,16.50
2019-04-03T13:29:13.472Z,16.60
2019-04-03T13:31:46.106Z,16.60
2019-04-03T13:34:14.348Z,16.60
2019-04-03T13:36:44.203Z,16.60
2019-04-03T13:39:14.335Z,16.60
2019-04-03T13:41:43.860Z,16.60
2019-04-03T13:44:13.520Z,16.60
2019-04-03T13:46:43.108Z,16.60
2019-04-03T13:49:12.844Z,16.50
2019-04-03T13:51:42.219Z,16.50
2019-04-03T13:54:11.639Z,16.30
2019-04-03T13:56:43.121Z,16.20
2019-04-03T13:59:12.158Z,16.10
2019-04-03T14:02:00.871Z,16.00
2019-04-03T14:04:30.284Z,15.90
2019-04-03T14:07:02.536Z,15.90
2019-04-03T14:09:30.751Z,15.90
2019-04-03T14:12:00.984Z,15.90
2019-04-03T14:14:31.660Z,15.80
2019-04-03T14:17:01.549Z,15.80
2019-04-03T14:19:42.635Z,15.80
2019-04-03T14:22:02.882Z,15.90
2019-04-03T14:24:41.328Z,15.90
2019-04-03T14:27:03.624Z,15.90
2019-04-03T14:29:33.019Z,16.00
2019-04-03T14:32:02.422Z,16.20
2019-04-03T14:34:32.193Z,16.50
2019-04-03T14:37:01.838Z,16.60
2019-04-03T14:39:31.354Z,16.50
2019-04-03T14:42:00.872Z,16.40
2019-04-03T14:44:30.326Z,16.30
2019-04-03T14:46:59.933Z,16.40
2019-04-03T14:49:31.744Z,16.50
2019-04-03T14:52:00.988Z,16.40
2019-04-03T14:54:31.775Z,16.40
2019-04-03T14:57:06.726Z,16.30
2019-04-03T14:59:34.685Z,16.30
2019-04-03T15:02:03.729Z,16.30
2019-04-03T15:04:36.518Z,16.30
2019-04-03T15:07:08.532Z,16.20
2019-04-03T15:09:35.526Z,16.20
2019-04-03T15:12:06.643Z,16.10
2019-04-03T15:14:36.231Z,16.10
2019-04-03T15:17:05.932Z,16.10
2019-04-03T15:19:57.081Z,16.20
2019-04-03T15:22:26.910Z,16.20
2019-04-03T15:24:56.587Z,16.10
2019-04-03T15:27:28.086Z,16.10
2019-04-03T15:29:57.114Z,16.00
2019-04-03T15:32:26.548Z,16.00
2019-04-03T15:34:57.204Z,16.00
2019-04-03T15:37:27.062Z,16.00
2019-04-03T15:39:58.379Z,16.00
2019-04-03T15:42:27.986Z,16.10
2019-04-03T15:44:57.853Z,16.00
2019-04-03T15:47:35.331Z,15.90
2019-04-03T15:49:59.670Z,15.90
2019-04-03T15:52:29.504Z,15.70
2019-04-03T15:54:58.870Z,15.70
2019-04-03T15:57:28.683Z,15.70
2019-04-03T16:00:01.815Z,15.70
2019-04-03T16:02:29.396Z,15.60
2019-04-03T16:04:59.938Z,15.40
2019-04-03T16:07:32.132Z,15.30
2019-04-03T16:10:00.774Z,15.30
2019-04-03T16:12:30.334Z,15.30
2019-04-03T16:14:59.812Z,15.30
2019-04-03T16:17:29.335Z,15.20
2019-04-03T16:19:58.813Z,15.20
2019-04-03T16:22:30.235Z,15.00
2019-04-03T16:24:59.598Z,15.00
2019-04-03T16:27:30.199Z,15.00
2019-04-03T16:30:00.658Z,15.00
2019-04-03T16:32:30.572Z,15.00
2019-04-03T16:35:01.315Z,15.00
2019-04-03T16:37:30.996Z,14.90
2019-04-03T16:40:04.761Z,14.90
2019-04-03T16:42:33.591Z,15.00
2019-04-03T16:45:04.859Z,14.80
2019-04-03T16:47:34.587Z,14.60
2019-04-03T16:50:06.673Z,14.50
2019-04-03T16:52:37.660Z,14.30
2019-04-03T16:55:07.981Z,14.20
2019-04-03T16:57:38.141Z,14.10
2019-04-03T17:00:10.043Z,14.10
2019-04-03T17:02:40.253Z,14.10
2019-04-03T17:05:11.682Z,14.10
2019-04-03T17:07:41.902Z,14.10
2019-04-03T17:10:13.172Z,14.10
2019-04-03T17:12:45.259Z,14.10
2019-04-03T17:15:14.333Z,14.10
2019-04-03T17:17:46.200Z,14.20
2019-04-03T17:20:16.162Z,14.20
2019-04-03T17:22:46.787Z,14.30
2019-04-03T17:25:16.412Z,14.30
2019-04-03T17:27:55.146Z,14.40
2019-04-03T17:30:18.321Z,14.50
2019-04-03T17:32:48.377Z,14.40
2019-04-03T17:35:18.076Z,14.30
2019-04-03T17:37:47.480Z,14.30
2019-04-03T17:40:17.106Z,14.40
2019-04-03T17:42:47.262Z,14.80
2019-04-03T17:45:16.797Z,14.90
2019-04-03T17:47:49.352Z,14.90
2019-04-03T17:50:17.341Z,14.90
2019-04-03T17:52:46.734Z,14.90
2019-04-03T17:55:16.382Z,14.90
2019-04-03T17:57:45.858Z,14.90
2019-04-03T18:00:20.510Z,14.70
2019-04-03T18:02:48.992Z,14.70
2019-04-03T18:05:18.898Z,14.70
2019-04-03T18:07:48.278Z,14.60
2019-04-03T18:10:19.455Z,14.60
2019-04-03T18:12:50.182Z,14.50
2019-04-03T18:15:20.056Z,14.50
2019-04-03T18:17:49.431Z,14.40
2019-04-03T18:20:19.155Z,14.40
2019-04-03T18:22:50.424Z,14.40
2019-04-03T18:25:19.674Z,14.40
2019-04-03T18:27:49.227Z,14.40
2019-04-03T18:30:19.382Z,14.40
2019-04-03T18:32:48.848Z,14.40
2019-04-03T18:35:18.227Z,14.40
2019-04-03T18:37:47.627Z,14.30
2019-04-03T18:40:17.133Z,14.30
2019-04-03T18:42:49.543Z,14.20
2019-04-03T18:45:25.027Z,14.10
2019-04-03T18:47:50.991Z,14.10
2019-04-03T18:50:19.935Z,14.20
2019-04-03T18:52:49.667Z,14.00
2019-04-03T18:55:19.061Z,14.10
2019-04-03T18:57:50.284Z,14.10
2019-04-03T19:00:19.800Z,14.10
2019-04-03T19:02:49.472Z,14.00
2019-04-03T19:05:18.888Z,14.00
2019-04-03T19:07:48.540Z,14.00
2019-04-03T19:10:18.855Z,14.10
2019-04-03T19:12:48.450Z,14.10
2019-04-03T19:15:18.065Z,14.10
2019-04-03T19:17:59.356Z,14.20
2019-04-03T19:20:18.922Z,14.20
2019-04-03T19:22:48.384Z,14.20
2019-04-03T19:25:18.525Z,14.30
2019-04-03T19:27:49.755Z,14.30
2019-04-03T19:30:19.538Z,14.30
2019-04-03T19:32:50.809Z,14.40
2019-04-03T19:35:20.206Z,14.40
2019-04-03T19:37:49.676Z,14.40
2019-04-03T19:40:19.152Z,14.40
2019-04-03T19:42:48.986Z,14.50
2019-04-03T19:45:20.623Z,14.50
2019-04-03T19:47:49.824Z,14.60
2019-04-03T19:50:19.227Z,14.60
2019-04-03T19:52:48.604Z,14.60
2019-04-03T19:55:19.488Z,14.70
2019-04-03T19:57:49.243Z,14.70
2019-04-03T20:00:19.031Z,14.70
2019-04-03T20:02:48.453Z,14.70
2019-04-03T20:05:18.877Z,14.60
2019-04-03T20:07:49.013Z,14.50
2019-04-03T20:10:18.543Z,14.40
2019-04-03T20:12:48.444Z,14.40
2019-04-03T20:15:17.837Z,14.30
2019-04-03T20:17:47.226Z,14.30
2019-04-03T20:20:16.752Z,14.30
2019-04-03T20:22:46.158Z,14.10
2019-04-03T20:25:15.898Z,14.10
2019-04-03T20:27:47.271Z,14.00
2019-04-03T20:30:16.467Z,13.90
2019-04-03T20:32:46.044Z,13.80
2019-04-03T20:35:17.909Z,13.70
2019-04-03T20:37:46.523Z,13.70
2019-04-03T20:40:16.544Z,13.70
2019-04-03T20:42:46.019Z,13.70
2019-04-03T20:45:17.026Z,13.60
2019-04-03T20:47:46.584Z,13.70
2019-04-03T20:50:16.409Z,13.70
2019-04-03T20:52:46.792Z,13.70
2019-04-03T20:55:16.373Z,13.70
2019-04-03T20:57:56.076Z,13.60
2019-04-03T21:00:27.087Z,13.70
2019-04-03T21:02:56.488Z,13.60
2019-04-03T21:05:27.443Z,13.60
2019-04-03T21:07:56.924Z,13.60
2019-04-03T21:10:26.375Z,13.60
2019-04-03T21:12:55.785Z,13.60
2019-04-03T21:15:25.178Z,13.70
2019-04-03T21:17:54.648Z,13.70
2019-04-03T21:20:24.344Z,13.70
2019-04-03T21:23:10.707Z,13.60
2019-04-03T21:25:40.784Z,13.50
2019-04-03T21:28:11.053Z,13.50
2019-04-03T21:30:41.060Z,13.50
2019-04-03T21:33:10.435Z,13.40
2019-04-03T21:35:39.850Z,13.40
2019-04-03T21:38:10.834Z,13.40
2019-04-03T21:40:40.326Z,13.40
2019-04-03T21:43:09.789Z,13.40
2019-04-03T21:45:39.395Z,13.40
2019-04-03T21:48:08.815Z,13.40
2019-04-03T21:50:38.279Z,13.40
2019-04-03T21:53:07.655Z,13.40
2019-04-03T21:55:37.123Z,13.50
2019-04-03T21:58:08.832Z,13.40
2019-04-03T22:00:59.931Z,13.40
2019-04-03T22:03:29.433Z,13.40
2019-04-03T22:05:58.830Z,13.30
2019-04-03T22:08:29.042Z,13.30
2019-04-03T22:10:59.317Z,13.20
2019-04-03T22:13:29.012Z,13.20
2019-04-03T22:15:59.463Z,13.10
2019-04-03T22:18:28.885Z,13.10
2019-04-03T22:20:59.856Z,13.10
2019-04-03T22:23:29.376Z,13.10
2019-04-03T22:25:58.928Z,13.10
2019-04-03T22:28:28.319Z,13.10
2019-04-03T22:30:57.712Z,13.10
2019-04-03T22:33:27.830Z,13.10
2019-04-03T22:35:57.817Z,13.00
2019-04-03T22:38:27.289Z,13.00
2019-04-03T22:40:56.759Z,13.00
2019-04-03T22:43:26.148Z,13.10
2019-04-03T22:45:55.532Z,13.10
2019-04-03T22:48:26.605Z,13.10
2019-04-03T22:50:56.975Z,13.10
2019-04-03T22:53:26.362Z,13.10
2019-04-03T22:55:55.826Z,13.00
2019-04-03T22:58:25.225Z,13.00
2019-04-03T23:00:54.612Z,13.10
2019-04-03T23:03:23.995Z,13.10
2019-04-03T23:05:53.476Z,13.10
2019-04-03T23:08:23.313Z,13.00
2019-04-03T23:10:52.847Z,13.00
2019-04-03T23:13:22.247Z,13.10
2019-04-03T23:15:51.712Z,13.10
2019-04-03T23:18:21.168Z,13.10
2019-04-03T23:20:52.600Z,13.10
2019-04-03T23:23:21.636Z,13.10
2019-04-03T23:25:51.051Z,13.10
2019-04-03T23:28:20.443Z,13.00
2019-04-03T23:30:49.843Z,13.00
2019-04-03T23:33:19.311Z,13.00
2019-04-03T23:35:49.072Z,13.10
2019-04-03T23:38:19.790Z,13.10
2019-04-03T23:40:49.180Z,13.10
2019-04-03T23:43:18.681Z,13.10
2019-04-03T23:45:48.067Z,13.00
2019-04-03T23:48:18.539Z,13.00
2019-04-03T23:50:47.986Z,13.00
2019-04-03T23:53:17.382Z,13.00
2019-04-03T23:55:47.847Z,12.90
2019-04-03T23:58:17.217Z,12.90
